首页
METAR-TAF:

METAR-TAF

机场 :

巴塔機場

巴塔, 赤道几内亚

纬度: 1-54-15N, 经度: 9-48-15E, 海拔: 4米

当前天气观测

该预报发布于24分钟前的09:00 UTC
风速5节,风向西
温度 31°C
湿度 79%
气压 1010 hPa
能见度10公里或以上
散云层高于1000英尺
少量云层高于2000英尺, 积雨云.

METAR: FGBT 220900Z 27005KT 9999 SCT010 FEW020CB 31/27 Q1010

时间: 10:24 (09:24 UTC)

预报

该预报发布于4小时和24分钟前的05:00 UTC
预报有效从22日的 06点(UTC)到 23日的 06点(UTC)
风速6节,风向
能见度10公里或以上
多云层高于1000英尺
几率 40% :
短暂存在
从 22日的 06点(UTC)到 22日的 10点(UTC)
多云层高于800英尺
少量云层高于1800英尺, 积雨云.
雷暴
短暂存在
从 22日的 14点(UTC)到 22日的 20点(UTC)
能見度: 3000
多云层高于1000英尺
少量云层高于2000英尺, 积雨云.
雷暴, 雨,

TAF: FGBT 220500Z 2206/2306 19006KT 9999 BKN010 PROB40 TEMPO 2206/2210 TS BKN008 FEW018CB TEMPO 2214/2220 3000 TSRA BKN010 FEW020CB

超过4000个机场的气象观测和天气预报(METAR&TAF报告)。

可查询的气象台以黄色和红色小点在地图上表示。

将鼠标移到小点上方,可查看气象台名称。

然后点击查看天气观测和预报。

如需切换地图:点击带黑十字的绿色按钮放大地图;点击带横线的绿色按钮缩小地图;或者点击绿色箭头查看邻近地区的地图。


METAR-TAF: